• Join FlightAware (Why Join?)
  • Login
  • US Flag 
07:59AM EST


 

Airport Tracker/Info


-or-


 

Live Flight TrackerFlight Track Log ✈ CHQ5009 ✈ 24-Apr-2012 ✈ KORD - KTOL

Flight Track Log - Related Links

Times and Time Zones

All times are in EDT time to prevent confusion due to time zone crossing. See the CHQ5009 flight status page for this flight to view local times or setup timezone preferences in your user account.

Time Position Orientation Groundspeed Altitude Reporting Facility
EDT Latitude Longitude Course Direction KTS MPH feet Rate Location/Type
05:36PM 41.9792 -87.8750 165° South  Level FlightAware Approximate
05:37PM 41.9667 -87.7617 208° Southwest  Level FlightAware Approximate
05:38PM 41.8667 -87.8333 106° East 248 285 5,500  Level Chicago TRACON
05:39PM 41.8383 -87.7028 66° East 289 333 8,600 2,146 Climbing Chicago Center
05:40PM 41.8703 -87.6072 81° East 298 343 10,900 1,850 Climbing Chicago Center
05:41PM 41.8850 -87.4867 79° East 304 350 12,300 1,500 Climbing Chicago Center
05:42PM 41.9039 -87.3578 78° East 328 377 13,900 1,650 Climbing Chicago Center
05:43PM 41.9242 -87.2233 80° East 352 405 15,600 1,700 Climbing Chicago Center
05:44PM 41.9425 -87.0886 87° East 363 418 17,300 1,700 Climbing Chicago Center
05:45PM 41.9481 -86.9461 88° East 369 425 19,000 850 Climbing Chicago Center
05:46PM 41.9511 -86.7981 90° East 380 437 19,000 250 Level Chicago Center
05:47PM 41.9517 -86.6444 90° East 392 451 19,500 1,050 Climbing Chicago Center
05:48PM 41.9522 -86.4936 101° East 402 463 21,100 1,650 Climbing Chicago Center
05:49PM 41.9294 -86.3383 100° East 409 471 22,800 950 Climbing Chicago Center
05:50PM 41.9083 -86.1747 100° East 427 491 23,000 100 Climbing Chicago Center
05:51PM 41.8869 -86.0056 101° East 441 507 23,000 -300 Level Chicago Center
05:52PM 41.8631 -85.8367 99° East 453 521 22,400 -1,150 Descending Chicago Center
05:53PM 41.8433 -85.6703 100° East 453 521 20,700 -1,650 Descending Chicago Center
05:54PM 41.8236 -85.5183 101° East 437 503 19,100 -1,775 Descending Chicago Center
05:56PM 41.7825 -85.2258 99° East 422 486 15,700 -1,482 Descending Cleveland Center
05:57PM 41.7656 -85.0769 99° East 405 466 14,900 -397 Descending Cleveland Center
05:58PM 41.7500 -84.9394 101° East 389 448 14,900 -150 Level Cleveland Center
05:59PM 41.7283 -84.7961 100° East 395 455 14,600 -600 Descending Cleveland Center
06:00PM 41.7086 -84.6500 102° East 395 455 13,700 -950 Descending Cleveland Center
06:01PM 41.6881 -84.5153 101° East 389 448 12,700 -1,000 Descending Cleveland Center
06:02PM 41.6694 -84.3889 100° East 360 414 11,700 -1,000 Descending Cleveland Center
06:03PM 41.6544 -84.2714 101° East 335 386 10,700 -1,400 Descending Cleveland Center
06:04PM 41.6392 -84.1675 101° East 295 339 8,900 -1,750 Descending Cleveland Center
06:05PM 41.6236 -84.0611 100° East 290 334 7,200 -1,714 Descending Cleveland Center
06:06PM 41.6117 -83.9717 86° East 280 322 5,500 -1,400 Descending Cleveland Center
06:07PM 41.6164 -83.8803 86° East 267 307 4,400 -1,082 Descending Cleveland Center